sensor_id;sensor_type;location;lat;lon;timestamp;temperature;humidity
48264;DHT22;34086;51.076;13.722;2022-11-03T00:00:06;6.40;99.90
48264;DHT22;34086;51.076;13.722;2022-11-03T00:01:12;6.30;99.90
48264;DHT22;34086;51.076;13.722;2022-11-03T00:02:13;6.30;99.90
48264;DHT22;34086;51.076;13.722;2022-11-03T00:03:13;6.30;99.90
48264;DHT22;34086;51.076;13.722;2022-11-03T00:04:16;6.30;99.90
48264;DHT22;34086;51.076;13.722;2022-11-03T00:05:17;6.30;99.90
48264;DHT22;34086;51.076;13.722;2022-11-03T00:06:37;6.30;99.90
48264;DHT22;34086;51.076;13.722;2022-11-03T00:07:37;6.30;99.90
48264;DHT22;34086;51.076;13.722;2022-11-03T00:08:40;6.20;99.90
48264;DHT22;34086;51.076;13.722;2022-11-03T00:09:41;6.20;99.90
48264;DHT22;34086;51.076;13.722;2022-11-03T00:10:41;6.20;99.90
48264;DHT22;34086;51.076;13.722;2022-11-03T00:11:44;6.20;99.90
48264;DHT22;34086;51.076;13.722;2022-11-03T00:12:45;6.20;99.90
48264;DHT22;34086;51.076;13.722;2022-11-03T00:13:45;6.20;99.90
48264;DHT22;34086;51.076;13.722;2022-11-03T00:14:46;6.10;99.90
48264;DHT22;34086;51.076;13.722;2022-11-03T00:15:47;6.10;99.90
48264;DHT22;34086;51.076;13.722;2022-11-03T00:16:49;6.10;99.90
48264;DHT22;34086;51.076;13.722;2022-11-03T00:17:49;6.10;99.90
48264;DHT22;34086;51.076;13.722;2022-11-03T00:18:51;6.10;99.90
48264;DHT22;34086;51.076;13.722;2022-11-03T00:19:52;6.10;99.90
48264;DHT22;34086;51.076;13.722;2022-11-03T00:21:06;6.10;99.90
48264;DHT22;34086;51.076;13.722;2022-11-03T00:22:08;6.10;99.90
48264;DHT22;34086;51.076;13.722;2022-11-03T00:23:08;6.10;99.90
48264;DHT22;34086;51.076;13.722;2022-11-03T00:24:09;6.10;99.90
48264;DHT22;34086;51.076;13.722;2022-11-03T00:25:10;6.10;99.90
48264;DHT22;34086;51.076;13.722;2022-11-03T00:26:15;6.00;99.90
48264;DHT22;34086;51.076;13.722;2022-11-03T00:27:16;6.00;99.90
48264;DHT22;34086;51.076;13.722;2022-11-03T00:28:16;6.00;99.90
48264;DHT22;34086;51.076;13.722;2022-11-03T00:29:17;6.00;99.90
48264;DHT22;34086;51.076;13.722;2022-11-03T00:30:17;6.00;99.90
48264;DHT22;34086;51.076;13.722;2022-11-03T00:31:21;6.00;99.90
48264;DHT22;34086;51.076;13.722;2022-11-03T00:32:21;6.00;99.90
48264;DHT22;34086;51.076;13.722;2022-11-03T00:33:22;6.00;99.90
48264;DHT22;34086;51.076;13.722;2022-11-03T00:34:26;5.90;99.90
48264;DHT22;34086;51.076;13.722;2022-11-03T00:35:26;6.00;99.90
48264;DHT22;34086;51.076;13.722;2022-11-03T00:36:33;6.00;99.90
48264;DHT22;34086;51.076;13.722;2022-11-03T00:37:34;5.90;99.90
48264;DHT22;34086;51.076;13.722;2022-11-03T00:38:34;5.90;99.90
48264;DHT22;34086;51.076;13.722;2022-11-03T00:39:37;5.90;99.90
48264;DHT22;34086;51.076;13.722;2022-11-03T00:40:37;5.90;99.90
48264;DHT22;34086;51.076;13.722;2022-11-03T00:41:38;5.90;99.90
48264;DHT22;34086;51.076;13.722;2022-11-03T00:42:39;6.00;99.90
48264;DHT22;34086;51.076;13.722;2022-11-03T00:43:40;6.00;99.90
48264;DHT22;34086;51.076;13.722;2022-11-03T00:44:40;6.00;99.90
48264;DHT22;34086;51.076;13.722;2022-11-03T00:45:41;5.90;99.90
48264;DHT22;34086;51.076;13.722;2022-11-03T00:46:42;5.90;99.90
48264;DHT22;34086;51.076;13.722;2022-11-03T00:47:43;5.90;99.90
48264;DHT22;34086;51.076;13.722;2022-11-03T00:49:03;6.00;99.90
48264;DHT22;34086;51.076;13.722;2022-11-03T00:50:04;6.00;99.90
48264;DHT22;34086;51.076;13.722;2022-11-03T00:51:23;6.00;99.90
48264;DHT22;34086;51.076;13.722;2022-11-03T00:52:24;6.00;99.90
48264;DHT22;34086;51.076;13.722;2022-11-03T00:53:24;6.00;99.90
48264;DHT22;34086;51.076;13.722;2022-11-03T00:54:25;5.90;99.90
48264;DHT22;34086;51.076;13.722;2022-11-03T00:55:25;6.00;99.90
48264;DHT22;34086;51.076;13.722;2022-11-03T00:56:28;6.00;99.90
48264;DHT22;34086;51.076;13.722;2022-11-03T00:57:29;6.00;99.90
48264;DHT22;34086;51.076;13.722;2022-11-03T00:58:30;6.00;99.90
48264;DHT22;34086;51.076;13.722;2022-11-03T00:59:31;6.00;99.90
48264;DHT22;34086;51.076;13.722;2022-11-03T01:00:32;6.00;99.90
48264;DHT22;34086;51.076;13.722;2022-11-03T01:01:38;6.00;99.90
48264;DHT22;34086;51.076;13.722;2022-11-03T01:02:42;6.00;99.90
48264;DHT22;34086;51.076;13.722;2022-11-03T01:03:44;6.00;99.90
48264;DHT22;34086;51.076;13.722;2022-11-03T01:05:05;6.00;99.90
48264;DHT22;34086;51.076;13.722;2022-11-03T01:06:25;6.00;99.90
48264;DHT22;34086;51.076;13.722;2022-11-03T01:07:44;6.00;99.90
48264;DHT22;34086;51.076;13.722;2022-11-03T01:08:45;5.90;99.90
48264;DHT22;34086;51.076;13.722;2022-11-03T01:09:46;5.90;99.90
48264;DHT22;34086;51.076;13.722;2022-11-03T01:10:46;5.90;99.90
48264;DHT22;34086;51.076;13.722;2022-11-03T01:12:12;5.90;99.90
48264;DHT22;34086;51.076;13.722;2022-11-03T01:13:13;5.90;99.90
48264;DHT22;34086;51.076;13.722;2022-11-03T01:14:14;5.90;99.90
48264;DHT22;34086;51.076;13.722;2022-11-03T01:15:16;5.90;99.90
48264;DHT22;34086;51.076;13.722;2022-11-03T01:16:16;5.90;99.90
48264;DHT22;34086;51.076;13.722;2022-11-03T01:17:25;5.90;99.90
48264;DHT22;34086;51.076;13.722;2022-11-03T01:18:26;5.90;99.90
48264;DHT22;34086;51.076;13.722;2022-11-03T01:19:27;5.90;99.90
48264;DHT22;34086;51.076;13.722;2022-11-03T01:20:27;5.90;99.90
48264;DHT22;34086;51.076;13.722;2022-11-03T01:21:28;5.90;99.90
48264;DHT22;34086;51.076;13.722;2022-11-03T01:22:29;5.90;99.90
48264;DHT22;34086;51.076;13.722;2022-11-03T01:23:30;5.90;99.90
48264;DHT22;34086;51.076;13.722;2022-11-03T01:24:31;5.90;99.90
48264;DHT22;34086;51.076;13.722;2022-11-03T01:25:31;5.90;99.90
48264;DHT22;34086;51.076;13.722;2022-11-03T01:26:34;5.90;99.90
48264;DHT22;34086;51.076;13.722;2022-11-03T01:27:35;5.80;99.90
48264;DHT22;34086;51.076;13.722;2022-11-03T01:28:37;5.90;99.90
48264;DHT22;34086;51.076;13.722;2022-11-03T01:29:38;5.90;99.90
48264;DHT22;34086;51.076;13.722;2022-11-03T01:30:39;5.90;99.90
48264;DHT22;34086;51.076;13.722;2022-11-03T01:31:40;5.90;99.90
48264;DHT22;34086;51.076;13.722;2022-11-03T01:32:41;5.90;99.90
48264;DHT22;34086;51.076;13.722;2022-11-03T01:33:42;5.80;99.90
48264;DHT22;34086;51.076;13.722;2022-11-03T01:34:42;5.80;99.90
48264;DHT22;34086;51.076;13.722;2022-11-03T01:35:43;5.80;99.90
48264;DHT22;34086;51.076;13.722;2022-11-03T01:36:44;5.80;99.90
48264;DHT22;34086;51.076;13.722;2022-11-03T01:37:45;5.80;99.90
48264;DHT22;34086;51.076;13.722;2022-11-03T01:38:46;5.70;99.90
48264;DHT22;34086;51.076;13.722;2022-11-03T01:39:47;5.80;99.90
48264;DHT22;34086;51.076;13.722;2022-11-03T01:40:48;5.70;99.90
48264;DHT22;34086;51.076;13.722;2022-11-03T01:41:49;5.70;99.90
48264;DHT22;34086;51.076;13.722;2022-11-03T01:42:50;5.70;99.90
48264;DHT22;34086;51.076;13.722;2022-11-03T01:45:12;5.70;99.90
48264;DHT22;34086;51.076;13.722;2022-11-03T01:46:30;5.70;99.90
48264;DHT22;34086;51.076;13.722;2022-11-03T01:47:31;5.70;99.90
48264;DHT22;34086;51.076;13.722;2022-11-03T01:48:35;5.70;99.90
48264;DHT22;34086;51.076;13.722;2022-11-03T01:49:43;5.70;99.90
48264;DHT22;34086;51.076;13.722;2022-11-03T01:50:46;5.70;99.90
48264;DHT22;34086;51.076;13.722;2022-11-03T01:51:52;5.70;99.90
48264;DHT22;34086;51.076;13.722;2022-11-03T01:52:56;5.70;99.90
48264;DHT22;34086;51.076;13.722;2022-11-03T01:53:59;5.70;99.90
48264;DHT22;34086;51.076;13.722;2022-11-03T01:55:03;5.70;99.90
48264;DHT22;34086;51.076;13.722;2022-11-03T01:56:05;5.70;99.90
48264;DHT22;34086;51.076;13.722;2022-11-03T01:57:12;5.70;99.90
48264;DHT22;34086;51.076;13.722;2022-11-03T01:58:27;5.80;99.90
48264;DHT22;34086;51.076;13.722;2022-11-03T01:59:29;5.80;99.90
48264;DHT22;34086;51.076;13.722;2022-11-03T02:00:29;5.80;99.90
48264;DHT22;34086;51.076;13.722;2022-11-03T02:01:30;5.80;99.90
48264;DHT22;34086;51.076;13.722;2022-11-03T02:02:31;5.80;99.90
48264;DHT22;34086;51.076;13.722;2022-11-03T02:03:35;5.80;99.90
48264;DHT22;34086;51.076;13.722;2022-11-03T02:04:37;5.80;99.90
48264;DHT22;34086;51.076;13.722;2022-11-03T02:05:40;5.80;99.90
48264;DHT22;34086;51.076;13.722;2022-11-03T02:06:42;5.80;99.90
48264;DHT22;34086;51.076;13.722;2022-11-03T02:07:50;5.70;99.90
48264;DHT22;34086;51.076;13.722;2022-11-03T02:09:10;5.80;99.90
48264;DHT22;34086;51.076;13.722;2022-11-03T02:10:11;5.70;99.90
48264;DHT22;34086;51.076;13.722;2022-11-03T02:11:12;5.70;99.90
48264;DHT22;34086;51.076;13.722;2022-11-03T02:12:34;5.70;99.90
48264;DHT22;34086;51.076;13.722;2022-11-03T02:13:35;5.70;99.90
48264;DHT22;34086;51.076;13.722;2022-11-03T02:14:42;5.70;99.90
48264;DHT22;34086;51.076;13.722;2022-11-03T02:15:43;5.70;99.90
48264;DHT22;34086;51.076;13.722;2022-11-03T02:16:56;5.70;99.90
48264;DHT22;34086;51.076;13.722;2022-11-03T02:17:59;5.70;99.90
48264;DHT22;34086;51.076;13.722;2022-11-03T02:19:01;5.70;99.90
48264;DHT22;34086;51.076;13.722;2022-11-03T02:20:11;5.70;99.90
48264;DHT22;34086;51.076;13.722;2022-11-03T02:21:28;5.70;99.90
48264;DHT22;34086;51.076;13.722;2022-11-03T02:23:53;5.60;99.90
48264;DHT22;34086;51.076;13.722;2022-11-03T02:25:32;5.60;99.90
48264;DHT22;34086;51.076;13.722;2022-11-03T02:26:33;5.60;99.90
48264;DHT22;34086;51.076;13.722;2022-11-03T02:27:34;5.60;99.90
48264;DHT22;34086;51.076;13.722;2022-11-03T02:28:34;5.60;99.90
48264;DHT22;34086;51.076;13.722;2022-11-03T02:29:35;5.60;99.90
48264;DHT22;34086;51.076;13.722;2022-11-03T02:31:53;5.50;99.90
48264;DHT22;34086;51.076;13.722;2022-11-03T02:33:01;5.50;99.90
48264;DHT22;34086;51.076;13.722;2022-11-03T02:34:13;5.50;99.90
48264;DHT22;34086;51.076;13.722;2022-11-03T02:35:27;5.50;99.90
48264;DHT22;34086;51.076;13.722;2022-11-03T02:37:46;5.40;99.90
48264;DHT22;34086;51.076;13.722;2022-11-03T02:40:09;5.40;99.90
48264;DHT22;34086;51.076;13.722;2022-11-03T02:41:13;5.40;99.90
48264;DHT22;34086;51.076;13.722;2022-11-03T02:42:17;5.30;99.90
48264;DHT22;34086;51.076;13.722;2022-11-03T02:43:21;5.30;99.90
48264;DHT22;34086;51.076;13.722;2022-11-03T02:44:23;5.30;99.90
48264;DHT22;34086;51.076;13.722;2022-11-03T02:45:25;5.30;99.90
48264;DHT22;34086;51.076;13.722;2022-11-03T02:46:29;5.30;99.90
48264;DHT22;34086;51.076;13.722;2022-11-03T02:47:32;5.30;99.90
48264;DHT22;34086;51.076;13.722;2022-11-03T02:48:34;5.20;99.90
48264;DHT22;34086;51.076;13.722;2022-11-03T02:49:49;5.20;99.90
48264;DHT22;34086;51.076;13.722;2022-11-03T02:50:49;5.20;99.90
48264;DHT22;34086;51.076;13.722;2022-11-03T02:52:00;5.20;99.90
48264;DHT22;34086;51.076;13.722;2022-11-03T02:53:02;5.10;99.90
48264;DHT22;34086;51.076;13.722;2022-11-03T02:54:22;5.20;99.90
48264;DHT22;34086;51.076;13.722;2022-11-03T02:56:51;5.10;99.90
48264;DHT22;34086;51.076;13.722;2022-11-03T02:59:22;5.10;99.90
48264;DHT22;34086;51.076;13.722;2022-11-03T03:00:24;5.00;99.90
48264;DHT22;34086;51.076;13.722;2022-11-03T03:01:35;5.00;99.90
48264;DHT22;34086;51.076;13.722;2022-11-03T03:02:58;5.00;99.90
48264;DHT22;34086;51.076;13.722;2022-11-03T03:04:06;4.90;99.90
48264;DHT22;34086;51.076;13.722;2022-11-03T03:05:10;4.90;99.90
48264;DHT22;34086;51.076;13.722;2022-11-03T03:06:37;4.90;99.90
48264;DHT22;34086;51.076;13.722;2022-11-03T03:07:43;4.90;99.90
48264;DHT22;34086;51.076;13.722;2022-11-03T03:08:49;5.00;99.90
48264;DHT22;34086;51.076;13.722;2022-11-03T03:10:02;4.90;99.90
48264;DHT22;34086;51.076;13.722;2022-11-03T03:11:05;4.90;99.90
48264;DHT22;34086;51.076;13.722;2022-11-03T03:12:07;4.90;99.90
48264;DHT22;34086;51.076;13.722;2022-11-03T03:13:12;4.80;99.90
48264;DHT22;34086;51.076;13.722;2022-11-03T03:14:25;4.80;99.90
48264;DHT22;34086;51.076;13.722;2022-11-03T03:16:03;4.80;99.90
48264;DHT22;34086;51.076;13.722;2022-11-03T03:17:14;4.80;99.90
48264;DHT22;34086;51.076;13.722;2022-11-03T03:18:33;4.80;99.90
48264;DHT22;34086;51.076;13.722;2022-11-03T03:21:04;4.70;99.90
48264;DHT22;34086;51.076;13.722;2022-11-03T03:22:15;4.70;99.90
48264;DHT22;34086;51.076;13.722;2022-11-03T03:23:26;4.70;99.90
48264;DHT22;34086;51.076;13.722;2022-11-03T03:24:52;4.70;99.90
48264;DHT22;34086;51.076;13.722;2022-11-03T03:26:39;4.70;99.90
48264;DHT22;34086;51.076;13.722;2022-11-03T03:27:40;4.70;99.90
48264;DHT22;34086;51.076;13.722;2022-11-03T03:28:46;4.70;99.90
48264;DHT22;34086;51.076;13.722;2022-11-03T03:29:53;4.70;99.90
48264;DHT22;34086;51.076;13.722;2022-11-03T03:30:56;4.70;99.90
48264;DHT22;34086;51.076;13.722;2022-11-03T03:32:04;4.70;99.90
48264;DHT22;34086;51.076;13.722;2022-11-03T03:33:07;4.70;99.90
48264;DHT22;34086;51.076;13.722;2022-11-03T03:34:09;4.60;99.90
48264;DHT22;34086;51.076;13.722;2022-11-03T03:35:13;4.60;99.90
48264;DHT22;34086;51.076;13.722;2022-11-03T03:36:17;4.60;99.90
48264;DHT22;34086;51.076;13.722;2022-11-03T03:37:19;4.60;99.90
48264;DHT22;34086;51.076;13.722;2022-11-03T03:38:27;4.60;99.90
48264;DHT22;34086;51.076;13.722;2022-11-03T03:39:34;4.60;99.90
48264;DHT22;34086;51.076;13.722;2022-11-03T03:40:38;4.60;99.90
48264;DHT22;34086;51.076;13.722;2022-11-03T03:41:41;4.60;99.90
48264;DHT22;34086;51.076;13.722;2022-11-03T03:42:44;4.60;99.90
48264;DHT22;34086;51.076;13.722;2022-11-03T03:43:45;4.60;99.90
48264;DHT22;34086;51.076;13.722;2022-11-03T03:44:46;4.50;99.90
48264;DHT22;34086;51.076;13.722;2022-11-03T03:45:51;4.50;99.90
48264;DHT22;34086;51.076;13.722;2022-11-03T03:46:59;4.50;99.90
48264;DHT22;34086;51.076;13.722;2022-11-03T03:48:00;4.50;99.90
48264;DHT22;34086;51.076;13.722;2022-11-03T03:49:02;4.50;99.90
48264;DHT22;34086;51.076;13.722;2022-11-03T03:50:03;4.50;99.90
48264;DHT22;34086;51.076;13.722;2022-11-03T03:51:04;4.50;99.90
48264;DHT22;34086;51.076;13.722;2022-11-03T03:52:06;4.50;99.90
48264;DHT22;34086;51.076;13.722;2022-11-03T03:53:11;4.50;99.90
48264;DHT22;34086;51.076;13.722;2022-11-03T03:54:12;4.50;99.90
48264;DHT22;34086;51.076;13.722;2022-11-03T03:55:17;4.50;99.90
48264;DHT22;34086;51.076;13.722;2022-11-03T03:56:33;4.40;99.90
48264;DHT22;34086;51.076;13.722;2022-11-03T03:57:35;4.40;99.90
48264;DHT22;34086;51.076;13.722;2022-11-03T03:58:35;4.40;99.90
48264;DHT22;34086;51.076;13.722;2022-11-03T03:59:36;4.40;99.90
48264;DHT22;34086;51.076;13.722;2022-11-03T04:00:37;4.40;99.90
48264;DHT22;34086;51.076;13.722;2022-11-03T04:01:39;4.40;99.90
48264;DHT22;34086;51.076;13.722;2022-11-03T04:02:40;4.40;99.90
48264;DHT22;34086;51.076;13.722;2022-11-03T04:03:41;4.40;99.90
48264;DHT22;34086;51.076;13.722;2022-11-03T04:04:41;4.40;99.90
48264;DHT22;34086;51.076;13.722;2022-11-03T04:05:43;4.40;99.90
48264;DHT22;34086;51.076;13.722;2022-11-03T04:06:43;4.40;99.90
48264;DHT22;34086;51.076;13.722;2022-11-03T04:07:44;4.40;99.90
48264;DHT22;34086;51.076;13.722;2022-11-03T04:08:48;4.30;99.90
48264;DHT22;34086;51.076;13.722;2022-11-03T04:09:48;4.40;99.90
48264;DHT22;34086;51.076;13.722;2022-11-03T04:10:49;4.40;99.90
48264;DHT22;34086;51.076;13.722;2022-11-03T04:12:08;4.40;99.90
48264;DHT22;34086;51.076;13.722;2022-11-03T04:13:27;4.30;99.90
48264;DHT22;34086;51.076;13.722;2022-11-03T04:14:47;4.30;99.90
48264;DHT22;34086;51.076;13.722;2022-11-03T04:16:08;4.30;99.90
48264;DHT22;34086;51.076;13.722;2022-11-03T04:17:27;4.30;99.90
48264;DHT22;34086;51.076;13.722;2022-11-03T04:18:47;4.30;99.90
48264;DHT22;34086;51.076;13.722;2022-11-03T04:20:14;4.20;99.90
48264;DHT22;34086;51.076;13.722;2022-11-03T04:21:33;4.30;99.90
48264;DHT22;34086;51.076;13.722;2022-11-03T04:22:52;4.30;99.90
48264;DHT22;34086;51.076;13.722;2022-11-03T04:23:53;4.30;99.90
48264;DHT22;34086;51.076;13.722;2022-11-03T04:24:54;4.30;99.90
48264;DHT22;34086;51.076;13.722;2022-11-03T04:25:55;4.30;99.90
48264;DHT22;34086;51.076;13.722;2022-11-03T04:27:01;4.30;99.90
48264;DHT22;34086;51.076;13.722;2022-11-03T04:28:12;4.30;99.90
48264;DHT22;34086;51.076;13.722;2022-11-03T04:29:13;4.30;99.90
48264;DHT22;34086;51.076;13.722;2022-11-03T04:30:20;4.30;99.90
48264;DHT22;34086;51.076;13.722;2022-11-03T04:31:25;4.30;99.90
48264;DHT22;34086;51.076;13.722;2022-11-03T04:32:28;4.30;99.90
48264;DHT22;34086;51.076;13.722;2022-11-03T04:33:29;4.30;99.90
48264;DHT22;34086;51.076;13.722;2022-11-03T04:34:30;4.40;99.90
48264;DHT22;34086;51.076;13.722;2022-11-03T04:35:30;4.40;99.90
48264;DHT22;34086;51.076;13.722;2022-11-03T04:36:31;4.40;99.90
48264;DHT22;34086;51.076;13.722;2022-11-03T04:37:32;4.40;99.90
48264;DHT22;34086;51.076;13.722;2022-11-03T04:38:32;4.40;99.90
48264;DHT22;34086;51.076;13.722;2022-11-03T04:39:33;4.40;99.90
48264;DHT22;34086;51.076;13.722;2022-11-03T04:40:34;4.40;99.90
48264;DHT22;34086;51.076;13.722;2022-11-03T04:41:35;4.30;99.90
48264;DHT22;34086;51.076;13.722;2022-11-03T04:42:38;4.30;99.90
48264;DHT22;34086;51.076;13.722;2022-11-03T04:43:38;4.30;99.90
48264;DHT22;34086;51.076;13.722;2022-11-03T04:44:39;4.30;99.90
48264;DHT22;34086;51.076;13.722;2022-11-03T04:45:42;4.30;99.90
48264;DHT22;34086;51.076;13.722;2022-11-03T04:46:44;4.30;99.90
48264;DHT22;34086;51.076;13.722;2022-11-03T04:47:46;4.30;99.90
48264;DHT22;34086;51.076;13.722;2022-11-03T04:48:46;4.30;99.90
48264;DHT22;34086;51.076;13.722;2022-11-03T04:49:47;4.30;99.90
48264;DHT22;34086;51.076;13.722;2022-11-03T04:50:52;4.30;99.90
48264;DHT22;34086;51.076;13.722;2022-11-03T04:51:53;4.30;99.90
48264;DHT22;34086;51.076;13.722;2022-11-03T04:52:56;4.30;99.90
48264;DHT22;34086;51.076;13.722;2022-11-03T04:54:17;4.30;99.90
48264;DHT22;34086;51.076;13.722;2022-11-03T04:55:19;4.30;99.90
48264;DHT22;34086;51.076;13.722;2022-11-03T04:56:23;4.30;99.90
48264;DHT22;34086;51.076;13.722;2022-11-03T04:57:27;4.30;99.90
48264;DHT22;34086;51.076;13.722;2022-11-03T04:58:31;4.30;99.90
48264;DHT22;34086;51.076;13.722;2022-11-03T04:59:33;4.30;99.90
48264;DHT22;34086;51.076;13.722;2022-11-03T05:00:33;4.30;99.90
48264;DHT22;34086;51.076;13.722;2022-11-03T05:01:34;4.30;99.90
48264;DHT22;34086;51.076;13.722;2022-11-03T05:02:35;4.40;99.90
48264;DHT22;34086;51.076;13.722;2022-11-03T05:03:36;4.40;99.90
48264;DHT22;34086;51.076;13.722;2022-11-03T05:04:38;4.40;99.90
48264;DHT22;34086;51.076;13.722;2022-11-03T05:05:39;4.50;99.90
48264;DHT22;34086;51.076;13.722;2022-11-03T05:06:40;4.50;99.90
48264;DHT22;34086;51.076;13.722;2022-11-03T05:07:48;4.50;99.90
48264;DHT22;34086;51.076;13.722;2022-11-03T05:08:54;4.50;99.90
48264;DHT22;34086;51.076;13.722;2022-11-03T05:09:55;4.50;99.90
48264;DHT22;34086;51.076;13.722;2022-11-03T05:10:58;4.50;99.90
48264;DHT22;34086;51.076;13.722;2022-11-03T05:11:59;4.50;99.90
48264;DHT22;34086;51.076;13.722;2022-11-03T05:13:00;4.50;99.90
48264;DHT22;34086;51.076;13.722;2022-11-03T05:14:05;4.50;99.90
48264;DHT22;34086;51.076;13.722;2022-11-03T05:15:33;4.60;99.90
48264;DHT22;34086;51.076;13.722;2022-11-03T05:16:34;4.70;99.90
48264;DHT22;34086;51.076;13.722;2022-11-03T05:17:36;4.70;99.90
48264;DHT22;34086;51.076;13.722;2022-11-03T05:18:39;4.70;99.90
48264;DHT22;34086;51.076;13.722;2022-11-03T05:19:41;4.70;99.90
48264;DHT22;34086;51.076;13.722;2022-11-03T05:20:49;4.70;99.90
48264;DHT22;34086;51.076;13.722;2022-11-03T05:21:51;4.70;99.90
48264;DHT22;34086;51.076;13.722;2022-11-03T05:22:53;4.80;99.90
48264;DHT22;34086;51.076;13.722;2022-11-03T05:23:58;4.80;99.90
48264;DHT22;34086;51.076;13.722;2022-11-03T05:26:28;5.00;99.90
48264;DHT22;34086;51.076;13.722;2022-11-03T05:27:30;4.90;99.90
48264;DHT22;34086;51.076;13.722;2022-11-03T05:28:34;4.90;99.90
48264;DHT22;34086;51.076;13.722;2022-11-03T05:29:36;4.90;99.90
48264;DHT22;34086;51.076;13.722;2022-11-03T05:30:37;4.90;99.90
48264;DHT22;34086;51.076;13.722;2022-11-03T05:31:40;4.80;99.90
48264;DHT22;34086;51.076;13.722;2022-11-03T05:32:41;4.80;99.90
48264;DHT22;34086;51.076;13.722;2022-11-03T05:33:42;4.80;99.90
48264;DHT22;34086;51.076;13.722;2022-11-03T05:34:49;4.80;99.90
48264;DHT22;34086;51.076;13.722;2022-11-03T05:35:50;4.70;99.90
48264;DHT22;34086;51.076;13.722;2022-11-03T05:36:51;4.80;99.90
48264;DHT22;34086;51.076;13.722;2022-11-03T05:37:51;4.80;99.90
48264;DHT22;34086;51.076;13.722;2022-11-03T05:38:55;4.80;99.90
48264;DHT22;34086;51.076;13.722;2022-11-03T05:39:59;4.80;99.90
48264;DHT22;34086;51.076;13.722;2022-11-03T05:41:10;4.80;99.90
48264;DHT22;34086;51.076;13.722;2022-11-03T05:42:27;4.80;99.90
48264;DHT22;34086;51.076;13.722;2022-11-03T05:43:29;4.80;99.90
48264;DHT22;34086;51.076;13.722;2022-11-03T05:44:35;4.80;99.90
48264;DHT22;34086;51.076;13.722;2022-11-03T05:45:36;4.80;99.90
48264;DHT22;34086;51.076;13.722;2022-11-03T05:46:37;4.80;99.90
48264;DHT22;34086;51.076;13.722;2022-11-03T05:47:38;4.80;99.90
48264;DHT22;34086;51.076;13.722;2022-11-03T05:48:41;4.80;99.90
48264;DHT22;34086;51.076;13.722;2022-11-03T05:49:46;4.80;99.90
48264;DHT22;34086;51.076;13.722;2022-11-03T05:50:47;4.80;99.90
48264;DHT22;34086;51.076;13.722;2022-11-03T05:51:47;4.70;99.90
48264;DHT22;34086;51.076;13.722;2022-11-03T05:52:50;4.70;99.90
48264;DHT22;34086;51.076;13.722;2022-11-03T05:53:54;4.70;99.90
48264;DHT22;34086;51.076;13.722;2022-11-03T05:54:58;4.70;99.90
48264;DHT22;34086;51.076;13.722;2022-11-03T05:56:02;4.70;99.90
48264;DHT22;34086;51.076;13.722;2022-11-03T05:57:10;4.70;99.90
48264;DHT22;34086;51.076;13.722;2022-11-03T05:58:24;4.80;99.90
48264;DHT22;34086;51.076;13.722;2022-11-03T05:59:28;4.70;99.90
48264;DHT22;34086;51.076;13.722;2022-11-03T06:00:37;4.70;99.90
48264;DHT22;34086;51.076;13.722;2022-11-03T06:01:45;4.60;99.90
48264;DHT22;34086;51.076;13.722;2022-11-03T06:02:46;4.60;99.90
48264;DHT22;34086;51.076;13.722;2022-11-03T06:03:49;4.50;99.90
48264;DHT22;34086;51.076;13.722;2022-11-03T06:04:50;4.50;99.90
48264;DHT22;34086;51.076;13.722;2022-11-03T06:05:51;4.50;99.90
48264;DHT22;34086;51.076;13.722;2022-11-03T06:08:11;4.40;99.90
48264;DHT22;34086;51.076;13.722;2022-11-03T06:09:23;4.50;99.90
48264;DHT22;34086;51.076;13.722;2022-11-03T06:11:37;4.40;99.90
48264;DHT22;34086;51.076;13.722;2022-11-03T06:12:37;4.40;99.90
48264;DHT22;34086;51.076;13.722;2022-11-03T06:13:38;4.40;99.90
48264;DHT22;34086;51.076;13.722;2022-11-03T06:14:39;4.50;99.90
48264;DHT22;34086;51.076;13.722;2022-11-03T06:15:42;4.40;99.90
48264;DHT22;34086;51.076;13.722;2022-11-03T06:16:49;4.50;99.90
48264;DHT22;34086;51.076;13.722;2022-11-03T06:17:50;4.40;99.90
48264;DHT22;34086;51.076;13.722;2022-11-03T06:18:55;4.50;99.90
48264;DHT22;34086;51.076;13.722;2022-11-03T06:19:58;4.50;99.90
48264;DHT22;34086;51.076;13.722;2022-11-03T06:21:05;4.50;99.90
48264;DHT22;34086;51.076;13.722;2022-11-03T06:22:29;4.40;99.90
48264;DHT22;34086;51.076;13.722;2022-11-03T06:23:32;4.40;99.90
48264;DHT22;34086;51.076;13.722;2022-11-03T06:24:33;4.40;99.90
48264;DHT22;34086;51.076;13.722;2022-11-03T06:25:37;4.50;99.90
48264;DHT22;34086;51.076;13.722;2022-11-03T06:26:42;4.50;99.90
48264;DHT22;34086;51.076;13.722;2022-11-03T06:27:44;4.50;99.90
48264;DHT22;34086;51.076;13.722;2022-11-03T06:28:46;4.50;99.90
48264;DHT22;34086;51.076;13.722;2022-11-03T06:29:55;4.40;99.90
48264;DHT22;34086;51.076;13.722;2022-11-03T06:30:56;4.40;99.90
48264;DHT22;34086;51.076;13.722;2022-11-03T06:31:57;4.40;99.90
48264;DHT22;34086;51.076;13.722;2022-11-03T06:33:05;4.40;99.90
48264;DHT22;34086;51.076;13.722;2022-11-03T06:35:21;4.40;99.90
48264;DHT22;34086;51.076;13.722;2022-11-03T06:36:25;4.30;99.90
48264;DHT22;34086;51.076;13.722;2022-11-03T06:37:30;4.30;99.90
48264;DHT22;34086;51.076;13.722;2022-11-03T06:38:33;4.30;99.90
48264;DHT22;34086;51.076;13.722;2022-11-03T06:39:34;4.30;99.90
48264;DHT22;34086;51.076;13.722;2022-11-03T06:40:35;4.40;99.90
48264;DHT22;34086;51.076;13.722;2022-11-03T06:41:36;4.40;99.90
48264;DHT22;34086;51.076;13.722;2022-11-03T06:42:37;4.40;99.90
48264;DHT22;34086;51.076;13.722;2022-11-03T06:43:40;4.40;99.90
48264;DHT22;34086;51.076;13.722;2022-11-03T06:44:50;4.40;99.90
48264;DHT22;34086;51.076;13.722;2022-11-03T06:45:56;4.40;99.90
48264;DHT22;34086;51.076;13.722;2022-11-03T06:47:04;4.50;99.90
48264;DHT22;34086;51.076;13.722;2022-11-03T06:48:10;4.50;99.90
48264;DHT22;34086;51.076;13.722;2022-11-03T06:49:33;4.50;99.90
48264;DHT22;34086;51.076;13.722;2022-11-03T06:50:36;4.50;99.90
48264;DHT22;34086;51.076;13.722;2022-11-03T06:51:37;4.50;99.90
48264;DHT22;34086;51.076;13.722;2022-11-03T06:52:42;4.50;99.90
48264;DHT22;34086;51.076;13.722;2022-11-03T06:53:44;4.50;99.90
48264;DHT22;34086;51.076;13.722;2022-11-03T06:54:51;4.50;99.90
48264;DHT22;34086;51.076;13.722;2022-11-03T06:55:53;4.50;99.90
48264;DHT22;34086;51.076;13.722;2022-11-03T06:56:54;4.50;99.90
48264;DHT22;34086;51.076;13.722;2022-11-03T06:58:03;4.60;99.90
48264;DHT22;34086;51.076;13.722;2022-11-03T06:59:09;4.60;99.90
48264;DHT22;34086;51.076;13.722;2022-11-03T07:01:25;4.60;99.90
48264;DHT22;34086;51.076;13.722;2022-11-03T07:02:55;4.60;99.90
48264;DHT22;34086;51.076;13.722;2022-11-03T07:04:24;4.60;99.90
48264;DHT22;34086;51.076;13.722;2022-11-03T07:05:29;4.70;99.90
48264;DHT22;34086;51.076;13.722;2022-11-03T07:06:33;4.70;99.90